Etusivu
METAR-TAF:

METAR-TAF

Lentoasemat :

Asunción, Paraguay

Leveyspiiri: 25-16S, Pituuspiiri: 057-38W, korkeus merenpinnasta: 101 m

Tämänhetkinen sää

Tämä raportti tehtiin 21 minuuttia sitten, kello 15.00 UTC
Tuuli 8 kn idästä/koillisesta
Lämpötila 25°C
Kosteus 57%
Ilmanpaine 1020 hPa
Näkyvyys 10 km tai enemmän
ei pilviä alle 1500 m:ssä eikä cumulonimbus-pilviä

METAR: SGAS 201500Z 06008KT CAVOK 25/16 Q1020

Aika: 11:21 (15:21 UTC)

Sääennuste

Tämä raportti tehtiin 4 tuntia ja 17 minuuttia sitten, kello 11.04 UTC
Ennuste voimassa 20. päivästä klo 12 UTC - 21. päivään klo 12 UTC
Tuuli kn pohjoisesta
Näkyvyys 10 km tai enemmän
ei pilviä alle 1500 m:ssä eikä cumulonimbus-pilviä
Tulossa
20. päivästä klo 15 UTC - 20. päivään klo 17 UTC
Tuuli 11 kn koillisesta
Näkyvyys 10 km tai enemmän
ei pilviä alle 1500 m:ssä eikä cumulonimbus-pilviä

TAF: SGAS 201104Z 2012/2112 00000KT CAVOK TX29/2019Z TN17/2109Z BECMG 2015/2017 05011KT CAVOK

Säähavainnot ja -ennusteet yli 4000 lentoasemalta (METAR- ja TAF-raportit).

Käytössä olevat sääasemat on merkitty karttaan keltaisilla ja punaisilla pisteillä.

Aseta hiiri pisteen päälle nähdäksesi sääaseman nimen.

Klikkaa sitten nähdäksesi säähavainnot ja -ennusteet.

Kartan vaihtaminen: klikkaa mustalla rastilla varustettuja vihreitä pisteitä, niin voit zoomata sisään; viivalla varustettua vihreää pistettä, niin voit zoomata ulos tai vihreitä nuolia, niin pääset viereisille kartoille.


METAR-TAF: